createdAt,value
2016-07-22T00:00:45.384Z,22.17
2016-07-22T00:01:45.358Z,22.18
2016-07-22T00:02:45.346Z,22.2
2016-07-22T00:03:45.553Z,22.08
2016-07-22T00:04:45.344Z,22.11
2016-07-22T00:05:45.384Z,22.15
2016-07-22T00:06:45.373Z,22.13
2016-07-22T00:07:45.382Z,22.28
2016-07-22T00:08:45.386Z,22.2
2016-07-22T00:09:45.398Z,22.22
2016-07-22T00:10:45.335Z,22.23
2016-07-22T00:11:45.376Z,22.13
2016-07-22T00:12:45.357Z,22.06
2016-07-22T00:13:45.394Z,21.98
2016-07-22T00:14:45.398Z,21.87
2016-07-22T00:15:45.376Z,21.92
2016-07-22T00:16:45.399Z,21.96
2016-07-22T00:17:45.379Z,21.98
2016-07-22T00:18:45.359Z,21.83
2016-07-22T00:19:45.377Z,21.96
2016-07-22T00:20:45.351Z,21.93
2016-07-22T00:21:45.395Z,21.93
2016-07-22T00:22:45.394Z,21.79
2016-07-22T00:23:45.387Z,22
2016-07-22T00:24:45.403Z,21.96
2016-07-22T00:25:45.360Z,22.04
2016-07-22T00:26:45.402Z,22.06
2016-07-22T00:27:45.391Z,22.02
2016-07-22T00:28:45.392Z,21.92
2016-07-22T00:29:45.367Z,21.98
2016-07-22T00:30:45.364Z,21.95
2016-07-22T00:31:45.347Z,21.82
2016-07-22T00:32:45.363Z,21.83
2016-07-22T00:33:45.433Z,21.89
2016-07-22T00:34:45.360Z,21.92
2016-07-22T00:35:45.355Z,21.77
2016-07-22T00:36:45.363Z,21.82
2016-07-22T00:37:45.387Z,21.85
2016-07-22T00:38:45.392Z,21.83
2016-07-22T00:39:45.392Z,21.89
2016-07-22T00:40:45.412Z,21.83
2016-07-22T00:41:45.372Z,21.79
2016-07-22T00:42:45.400Z,21.64
2016-07-22T00:43:45.381Z,21.79
2016-07-22T00:44:45.402Z,21.72
2016-07-22T00:45:45.401Z,21.8
2016-07-22T00:46:45.379Z,21.77
2016-07-22T00:47:45.983Z,21.72
2016-07-22T00:48:45.405Z,21.75
2016-07-22T00:49:45.393Z,21.76
2016-07-22T00:50:45.400Z,21.79
2016-07-22T00:51:45.388Z,21.76
2016-07-22T00:52:45.380Z,21.79
2016-07-22T00:53:45.403Z,21.92
2016-07-22T00:54:45.351Z,21.8
2016-07-22T00:55:45.423Z,21.82
2016-07-22T00:56:45.358Z,21.77
2016-07-22T00:57:45.412Z,21.85
2016-07-22T00:58:45.384Z,21.96
2016-07-22T00:59:45.411Z,21.89
2016-07-22T01:00:45.415Z,21.85
2016-07-22T01:01:45.397Z,21.82
2016-07-22T01:02:45.435Z,21.79
2016-07-22T01:03:45.392Z,21.77
2016-07-22T01:04:45.367Z,21.73
2016-07-22T01:05:45.398Z,21.89
2016-07-22T01:06:45.402Z,21.85
2016-07-22T01:07:45.389Z,21.93
2016-07-22T01:08:45.418Z,21.92
2016-07-22T01:09:45.399Z,21.75
2016-07-22T01:10:45.411Z,21.83
2016-07-22T01:11:45.404Z,21.83
2016-07-22T01:12:46.180Z,21.83
2016-07-22T01:13:45.439Z,21.7
2016-07-22T01:14:45.414Z,21.72
2016-07-22T01:15:45.404Z,21.7
2016-07-22T01:16:45.413Z,21.69
2016-07-22T01:17:45.416Z,21.7
2016-07-22T01:18:45.444Z,21.72
2016-07-22T01:19:45.374Z,21.79
2016-07-22T01:20:45.416Z,21.75
2016-07-22T01:21:45.450Z,21.7
2016-07-22T01:22:45.411Z,21.69
2016-07-22T01:23:45.407Z,21.73
2016-07-22T01:24:45.416Z,21.6
2016-07-22T01:25:45.459Z,21.58
2016-07-22T01:26:45.424Z,21.48
2016-07-22T01:27:45.400Z,21.62
2016-07-22T01:28:45.408Z,21.48
2016-07-22T01:29:45.391Z,21.57
2016-07-22T01:30:45.392Z,21.48
2016-07-22T01:31:45.403Z,21.55
2016-07-22T01:32:45.409Z,21.57
2016-07-22T01:33:45.428Z,21.67
2016-07-22T01:34:45.430Z,21.6
2016-07-22T01:35:45.439Z,21.55
2016-07-22T01:36:45.553Z,21.6
2016-07-22T01:37:45.392Z,21.64
2016-07-22T01:38:45.437Z,21.6
2016-07-22T01:39:45.405Z,21.5
2016-07-22T01:40:45.420Z,21.48
2016-07-22T01:41:45.428Z,21.58
2016-07-22T01:42:45.431Z,21.51
2016-07-22T01:43:45.440Z,21.54
2016-07-22T01:44:45.365Z,21.52
2016-07-22T01:45:45.415Z,21.5
2016-07-22T01:46:45.414Z,21.51
2016-07-22T01:47:45.610Z,21.52
2016-07-22T01:48:45.398Z,21.51
2016-07-22T01:49:45.898Z,21.4
2016-07-22T01:50:45.411Z,21.29
2016-07-22T01:51:45.408Z,21.32
2016-07-22T01:52:45.444Z,21.3
2016-07-22T01:53:45.438Z,21.24
2016-07-22T01:54:45.421Z,21.24
2016-07-22T01:55:45.450Z,21.17
2016-07-22T01:56:45.414Z,21.33
2016-07-22T01:57:45.444Z,21.3
2016-07-22T01:58:45.456Z,21.36
2016-07-22T01:59:45.450Z,21.36
2016-07-22T02:00:45.457Z,21.42
2016-07-22T02:01:45.435Z,21.36
2016-07-22T02:02:45.441Z,21.32
2016-07-22T02:03:45.421Z,21.3
2016-07-22T02:04:45.373Z,21.29
2016-07-22T02:05:45.472Z,21.18
2016-07-22T02:06:45.420Z,21.29
2016-07-22T02:07:45.426Z,21.29
2016-07-22T02:08:45.446Z,21.24
2016-07-22T02:09:45.617Z,21.17
2016-07-22T02:10:45.441Z,21.17
2016-07-22T02:11:45.440Z,21.2
2016-07-22T02:12:45.403Z,21.18
2016-07-22T02:13:45.450Z,21.21
2016-07-22T02:14:45.421Z,21.24
2016-07-22T02:15:45.413Z,21.32
2016-07-22T02:16:45.411Z,21.32
2016-07-22T02:17:45.426Z,21.36
2016-07-22T02:18:45.444Z,21.4
2016-07-22T02:19:45.461Z,21.45
2016-07-22T02:20:45.437Z,21.45
2016-07-22T02:21:45.447Z,21.48
2016-07-22T02:22:45.435Z,21.48
2016-07-22T02:23:45.521Z,21.48
2016-07-22T02:24:45.439Z,21.51
2016-07-22T02:25:45.455Z,21.43
2016-07-22T02:26:45.437Z,21.45
2016-07-22T02:27:45.462Z,21.39
2016-07-22T02:28:45.474Z,21.42
2016-07-22T02:29:45.435Z,21.42
2016-07-22T02:30:45.467Z,21.45
2016-07-22T02:31:45.449Z,21.4
2016-07-22T02:32:45.456Z,21.5
2016-07-22T02:33:45.437Z,21.37
2016-07-22T02:34:45.443Z,21.5
2016-07-22T02:35:45.482Z,21.5
2016-07-22T02:36:45.465Z,21.5
2016-07-22T02:37:45.409Z,21.45
2016-07-22T02:38:45.442Z,21.39
2016-07-22T02:39:45.407Z,21.48
2016-07-22T02:40:45.437Z,21.4
2016-07-22T02:41:45.462Z,21.48
2016-07-22T02:42:45.465Z,21.5
2016-07-22T02:43:45.443Z,21.57
2016-07-22T02:44:45.465Z,21.51
2016-07-22T02:45:45.443Z,21.58
2016-07-22T02:46:45.450Z,21.7
2016-07-22T02:47:45.415Z,21.58
2016-07-22T02:48:45.448Z,21.51
2016-07-22T02:49:45.468Z,21.48
2016-07-22T02:50:45.461Z,21.5
2016-07-22T02:51:45.423Z,21.46
2016-07-22T02:52:45.448Z,21.57
2016-07-22T02:53:45.472Z,21.51
2016-07-22T02:54:45.461Z,21.62
2016-07-22T02:55:45.461Z,21.61
2016-07-22T02:56:45.462Z,21.76
2016-07-22T02:57:45.453Z,21.64
2016-07-22T02:58:46.019Z,21.57
2016-07-22T02:59:45.466Z,21.67
2016-07-22T03:00:45.459Z,21.57
2016-07-22T03:01:45.451Z,21.54
2016-07-22T03:02:45.447Z,21.52
2016-07-22T03:03:45.464Z,21.58
2016-07-22T03:04:45.453Z,21.52
2016-07-22T03:05:45.440Z,21.55
2016-07-22T03:06:45.475Z,21.42
2016-07-22T03:07:45.481Z,21.4
2016-07-22T03:08:45.481Z,21.36
2016-07-22T03:09:45.459Z,21.35
2016-07-22T03:10:45.471Z,21.29
2016-07-22T03:11:47.011Z,21.3
2016-07-22T03:12:46.047Z,21.25
2016-07-22T03:13:46.165Z,21.37
2016-07-22T03:14:45.471Z,21.39
2016-07-22T03:15:45.514Z,21.3
2016-07-22T03:16:45.459Z,21.3
2016-07-22T03:17:45.453Z,21.4
2016-07-22T03:18:45.488Z,21.36
2016-07-22T03:19:45.478Z,21.48
2016-07-22T03:20:45.498Z,21.48
2016-07-22T03:21:45.446Z,21.48
2016-07-22T03:22:45.468Z,21.45
2016-07-22T03:23:45.494Z,21.43
2016-07-22T03:24:45.462Z,21.35
2016-07-22T03:25:45.502Z,21.36
2016-07-22T03:26:45.464Z,21.33
2016-07-22T03:27:45.504Z,21.24
2016-07-22T03:28:45.464Z,21.17
2016-07-22T03:29:45.462Z,21.03
2016-07-22T03:30:45.493Z,21.2
2016-07-22T03:31:45.456Z,21.22
2016-07-22T03:32:45.466Z,21.22
2016-07-22T03:33:45.471Z,21.17
2016-07-22T03:34:45.528Z,21.07
2016-07-22T03:35:45.488Z,21.09
2016-07-22T03:36:45.484Z,20.97
2016-07-22T03:37:45.484Z,20.99
2016-07-22T03:38:45.470Z,21
2016-07-22T03:39:45.489Z,21
2016-07-22T03:40:45.506Z,21
2016-07-22T03:41:45.450Z,21.02
2016-07-22T03:42:45.455Z,21
2016-07-22T03:43:45.500Z,20.92
2016-07-22T03:44:45.765Z,20.93
2016-07-22T03:45:45.528Z,20.96
2016-07-22T03:46:45.521Z,21.05
2016-07-22T03:47:45.504Z,21.11
2016-07-22T03:48:45.447Z,20.97
2016-07-22T03:49:45.490Z,20.93
2016-07-22T03:50:45.478Z,20.84
2016-07-22T03:51:45.499Z,20.85
2016-07-22T03:52:45.504Z,20.9
2016-07-22T03:53:45.463Z,20.92
2016-07-22T03:54:45.473Z,20.87
2016-07-22T03:55:45.510Z,20.87
2016-07-22T03:56:45.492Z,20.84
2016-07-22T03:57:45.496Z,20.8
2016-07-22T03:58:45.495Z,20.81
2016-07-22T03:59:45.488Z,20.78
2016-07-22T04:00:45.502Z,20.75
2016-07-22T04:01:45.492Z,20.95
2016-07-22T04:02:45.522Z,20.99
2016-07-22T04:03:45.486Z,21
2016-07-22T04:04:45.499Z,21.07
2016-07-22T04:05:45.506Z,21.11
2016-07-22T04:06:45.496Z,21.18
2016-07-22T04:07:45.496Z,21.15
2016-07-22T04:08:45.460Z,21.29
2016-07-22T04:09:45.492Z,21.33
2016-07-22T04:10:45.491Z,21.39
2016-07-22T04:11:46.261Z,21.36
2016-07-22T04:12:45.538Z,21.33
2016-07-22T04:13:45.469Z,21.35
2016-07-22T04:14:45.531Z,21.29
2016-07-22T04:15:45.476Z,21.39
2016-07-22T04:16:45.517Z,21.4
2016-07-22T04:17:45.578Z,21.37
2016-07-22T04:18:45.517Z,21.32
2016-07-22T04:19:45.522Z,21.4
2016-07-22T04:20:45.517Z,21.39
2016-07-22T04:21:45.497Z,21.48
2016-07-22T04:22:45.483Z,21.42
2016-07-22T04:23:45.487Z,21.46
2016-07-22T04:24:45.514Z,21.37
2016-07-22T04:25:45.489Z,21.43
2016-07-22T04:26:45.520Z,21.5
2016-07-22T04:27:45.510Z,21.45
2016-07-22T04:28:45.492Z,21.57
2016-07-22T04:29:45.546Z,21.48
2016-07-22T04:30:45.511Z,21.61
2016-07-22T04:31:45.509Z,21.57
2016-07-22T04:32:45.521Z,21.58
2016-07-22T04:33:45.512Z,21.57
2016-07-22T04:34:45.506Z,21.64
2016-07-22T04:35:45.470Z,21.77
2016-07-22T04:36:45.495Z,21.77
2016-07-22T04:37:45.545Z,21.66
2016-07-22T04:38:45.517Z,21.73
2016-07-22T04:39:45.514Z,21.76
2016-07-22T04:40:45.493Z,21.73
2016-07-22T04:41:45.484Z,21.8
2016-07-22T04:42:45.513Z,21.76
2016-07-22T04:43:45.540Z,21.72
2016-07-22T04:44:45.565Z,21.73
2016-07-22T04:45:45.511Z,21.79
2016-07-22T04:46:45.513Z,21.8
2016-07-22T04:47:45.495Z,21.8
2016-07-22T04:48:45.512Z,21.83
2016-07-22T04:49:45.516Z,21.95
2016-07-22T04:50:45.542Z,22.06
2016-07-22T04:51:45.524Z,22
2016-07-22T04:52:45.552Z,22.13
2016-07-22T04:53:45.510Z,22.18
2016-07-22T04:54:45.572Z,22.1
2016-07-22T04:55:45.536Z,22.1
2016-07-22T04:56:45.582Z,22.06
2016-07-22T04:57:45.525Z,22.13
2016-07-22T04:58:45.513Z,22.07
2016-07-22T04:59:45.589Z,22.13
2016-07-22T05:00:45.507Z,22.29
2016-07-22T05:01:45.575Z,22.29
2016-07-22T05:02:45.530Z,22.41
2016-07-22T05:03:45.523Z,22.44
2016-07-22T05:04:45.550Z,22.38
2016-07-22T05:05:45.527Z,22.38
2016-07-22T05:06:45.512Z,22.29
2016-07-22T05:07:45.529Z,22.45
2016-07-22T05:08:45.548Z,22.39
2016-07-22T05:09:45.552Z,22.35
2016-07-22T05:10:45.564Z,22.32
2016-07-22T05:11:45.557Z,22.26
2016-07-22T05:12:45.541Z,22.28
2016-07-22T05:13:45.551Z,22.17
2016-07-22T05:14:45.542Z,22.3
2016-07-22T05:15:45.785Z,22.26
2016-07-22T05:16:45.559Z,22.25
2016-07-22T05:17:45.544Z,22.38
2016-07-22T05:18:45.540Z,22.32
2016-07-22T05:19:46.209Z,22.33
2016-07-22T05:20:45.550Z,22.39
2016-07-22T05:21:45.548Z,22.5
2016-07-22T05:22:45.527Z,22.5
2016-07-22T05:23:45.566Z,22.51
2016-07-22T05:24:45.559Z,22.57
2016-07-22T05:25:45.570Z,22.6
2016-07-22T05:26:45.538Z,22.54
2016-07-22T05:27:45.504Z,22.59
2016-07-22T05:28:45.544Z,22.53
2016-07-22T05:29:45.547Z,22.69
2016-07-22T05:30:45.592Z,22.7
2016-07-22T05:31:45.529Z,22.81
2016-07-22T05:32:45.526Z,22.9
2016-07-22T05:33:45.544Z,22.94
2016-07-22T05:34:45.519Z,23.02
2016-07-22T05:35:45.594Z,23
2016-07-22T05:36:45.568Z,22.99
2016-07-22T05:37:45.574Z,22.85
2016-07-22T05:38:45.516Z,22.93
2016-07-22T05:39:45.539Z,22.94
2016-07-22T05:40:45.560Z,22.96
2016-07-22T05:41:45.557Z,23.06
2016-07-22T05:42:45.554Z,23.13
2016-07-22T05:43:45.576Z,23.1
2016-07-22T05:44:45.586Z,23.15
2016-07-22T05:45:45.603Z,23.23
2016-07-22T05:46:45.593Z,22.99
2016-07-22T05:47:45.572Z,22.98
2016-07-22T05:48:45.610Z,22.93
2016-07-22T05:49:45.544Z,23.03
2016-07-22T05:50:45.594Z,22.96
2016-07-22T05:51:45.524Z,22.9
2016-07-22T05:52:45.564Z,22.83
2016-07-22T05:53:45.602Z,22.75
2016-07-22T05:54:45.582Z,22.78
2016-07-22T05:55:45.589Z,22.83
2016-07-22T05:56:45.630Z,22.91
2016-07-22T05:57:45.560Z,22.9
2016-07-22T05:58:45.652Z,22.9
2016-07-22T05:59:45.591Z,23.03
2016-07-22T06:00:45.554Z,23.17
2016-07-22T06:01:45.531Z,23.17
2016-07-22T06:02:45.589Z,23.25
2016-07-22T06:03:45.567Z,23.2
2016-07-22T06:04:45.564Z,23.13
2016-07-22T06:05:45.624Z,23.2
2016-07-22T06:06:45.804Z,23.08
2016-07-22T06:07:45.585Z,22.93
2016-07-22T06:08:45.592Z,22.91
2016-07-22T06:09:45.940Z,22.76
2016-07-22T06:10:45.619Z,22.78
2016-07-22T06:11:45.597Z,22.78
2016-07-22T06:12:45.574Z,22.7
2016-07-22T06:13:45.583Z,22.81
2016-07-22T06:14:45.589Z,22.81
2016-07-22T06:15:45.592Z,22.94
2016-07-22T06:16:45.597Z,22.96
2016-07-22T06:17:45.560Z,23.12
2016-07-22T06:18:45.571Z,23.09
2016-07-22T06:19:45.564Z,23.08
2016-07-22T06:20:45.579Z,23.1
2016-07-22T06:21:45.823Z,23.17
2016-07-22T06:22:45.612Z,23.1
2016-07-22T06:23:45.615Z,23.08
2016-07-22T06:24:45.568Z,23.15
2016-07-22T06:25:45.684Z,23.13
2016-07-22T06:26:45.586Z,23.24
2016-07-22T06:27:45.604Z,23.23
2016-07-22T06:28:45.858Z,23.39
2016-07-22T06:29:45.642Z,23.51
2016-07-22T06:30:45.590Z,23.65
2016-07-22T06:31:45.586Z,23.8
2016-07-22T06:32:45.570Z,23.74
2016-07-22T06:33:45.737Z,23.69
2016-07-22T06:34:45.898Z,23.59
2016-07-22T06:35:45.625Z,23.62
2016-07-22T06:36:45.603Z,23.51
2016-07-22T06:37:45.618Z,23.48
2016-07-22T06:38:45.626Z,23.37
2016-07-22T06:39:45.584Z,23.46
2016-07-22T06:40:45.598Z,23.27
2016-07-22T06:41:45.617Z,23.46
2016-07-22T06:42:45.603Z,23.2
2016-07-22T06:43:45.598Z,23.17
2016-07-22T06:44:45.571Z,23.21
2016-07-22T06:45:45.598Z,23.41
2016-07-22T06:46:45.681Z,23.28
2016-07-22T06:47:45.633Z,23.46
2016-07-22T06:48:45.623Z,23.55
2016-07-22T06:49:45.592Z,23.47
2016-07-22T06:50:45.579Z,23.56
2016-07-22T06:51:45.584Z,23.55
2016-07-22T06:52:45.603Z,23.61
2016-07-22T06:53:45.576Z,23.74
2016-07-22T06:54:46.049Z,23.68
2016-07-22T06:55:45.655Z,23.73
2016-07-22T06:56:45.608Z,23.73
2016-07-22T06:57:45.587Z,23.77
2016-07-22T06:58:45.677Z,23.83
2016-07-22T06:59:45.597Z,23.91
2016-07-22T07:00:45.892Z,23.81
2016-07-22T07:01:45.611Z,23.86
2016-07-22T07:02:45.793Z,23.81
2016-07-22T07:03:45.724Z,23.81
2016-07-22T07:04:45.607Z,23.76
2016-07-22T07:05:45.644Z,23.65
2016-07-22T07:06:45.683Z,23.71
2016-07-22T07:07:45.662Z,23.65
2016-07-22T07:08:45.607Z,23.56
2016-07-22T07:09:45.641Z,23.56
2016-07-22T07:10:45.624Z,23.51
2016-07-22T07:11:45.603Z,23.5
2016-07-22T07:12:45.602Z,23.56
2016-07-22T07:13:46.616Z,23.4
2016-07-22T07:14:45.683Z,23.4
2016-07-22T07:15:45.643Z,23.46
2016-07-22T07:16:45.615Z,23.39
2016-07-22T07:17:45.648Z,23.41
2016-07-22T07:18:45.650Z,23.28
2016-07-22T07:19:45.664Z,23.36
2016-07-22T07:20:45.641Z,23.55
2016-07-22T07:21:45.607Z,23.59
2016-07-22T07:22:45.707Z,23.68
2016-07-22T07:23:47.725Z,23.63
2016-07-22T07:24:45.641Z,23.58
2016-07-22T07:25:45.620Z,23.69
2016-07-22T07:26:47.065Z,23.59
2016-07-22T07:27:45.674Z,23.65
2016-07-22T07:28:45.659Z,23.66
2016-07-22T07:29:45.971Z,23.78
2016-07-22T07:30:45.702Z,23.83
2016-07-22T07:31:49.369Z,23.87
2016-07-22T07:32:45.648Z,23.93
2016-07-22T07:33:45.626Z,23.96
2016-07-22T07:34:45.665Z,23.96
2016-07-22T07:35:45.643Z,23.93
2016-07-22T07:36:49.571Z,23.76
2016-07-22T07:37:45.645Z,23.87
2016-07-22T07:38:45.633Z,23.84
2016-07-22T07:39:49.172Z,23.87
2016-07-22T07:40:48.314Z,23.99
2016-07-22T07:41:46.401Z,24.01
2016-07-22T07:42:46.706Z,24.2
2016-07-22T07:43:46.516Z,24.39
2016-07-22T07:44:45.752Z,24.57
2016-07-22T07:45:45.630Z,24.6
2016-07-22T07:46:45.731Z,24.5
2016-07-22T07:47:45.754Z,24.66
2016-07-22T07:48:58.421Z,24.51
2016-07-22T07:49:45.673Z,24.6
2016-07-22T07:50:45.701Z,24.78
2016-07-22T07:51:45.664Z,24.89
2016-07-22T07:52:45.662Z,25.26
2016-07-22T07:53:48.235Z,25.54
2016-07-22T07:54:45.837Z,25.72
2016-07-22T07:55:46.263Z,25.51
2016-07-22T07:56:45.667Z,25.9
2016-07-22T07:57:45.656Z,26.38
2016-07-22T07:58:45.673Z,26.83
2016-07-22T07:59:45.654Z,27.49
2016-07-22T08:00:45.619Z,27.93
2016-07-22T08:01:45.646Z,27.9
2016-07-22T08:02:45.758Z,27.42
2016-07-22T08:03:47.883Z,27.17
2016-07-22T08:04:55.915Z,27.27
2016-07-22T08:05:46.490Z,27.1
2016-07-22T08:06:45.664Z,27.14
2016-07-22T08:07:45.765Z,27.39
2016-07-22T08:08:45.731Z,27.64
2016-07-22T08:09:45.702Z,28.22
2016-07-22T08:10:45.646Z,28.63
2016-07-22T08:11:45.663Z,28.45
2016-07-22T08:12:45.661Z,27.92
2016-07-22T08:13:45.664Z,28.14
2016-07-22T08:14:45.997Z,28.37
2016-07-22T08:15:45.663Z,28.54
2016-07-22T08:16:46.038Z,28.33
2016-07-22T08:17:45.726Z,28.51
2016-07-22T08:18:45.762Z,28.93
2016-07-22T08:19:46.432Z,29.01
2016-07-22T08:20:45.760Z,28.74
2016-07-22T08:21:45.976Z,28.91
2016-07-22T08:22:46.536Z,29.07
2016-07-22T08:23:45.670Z,29.49
2016-07-22T08:24:46.291Z,29.61
2016-07-22T08:25:46.493Z,29.54
2016-07-22T08:26:45.806Z,29.24
2016-07-22T08:27:46.729Z,29.17
2016-07-22T08:28:45.842Z,29.23
2016-07-22T08:29:45.880Z,29.47
2016-07-22T08:30:45.720Z,29.6
2016-07-22T08:31:45.751Z,29.61
2016-07-22T08:32:48.446Z,29.39
2016-07-22T08:33:54.036Z,29.36
2016-07-22T08:34:45.669Z,29.6
2016-07-22T08:35:45.745Z,29.79
2016-07-22T08:36:46.459Z,30.19
2016-07-22T08:37:45.725Z,29.91
2016-07-22T08:38:46.191Z,29.76
2016-07-22T08:39:45.753Z,29.94
2016-07-22T08:40:45.815Z,29.91
2016-07-22T08:41:45.847Z,28.98
2016-07-22T08:42:46.122Z,29.01
2016-07-22T08:43:45.953Z,28.88
2016-07-22T08:44:45.727Z,28.59
2016-07-22T08:45:46.050Z,28.57
2016-07-22T08:46:47.632Z,28.82
2016-07-22T08:47:45.703Z,29.36
2016-07-22T08:48:45.723Z,29.59
2016-07-22T08:49:45.789Z,29.6
2016-07-22T08:50:45.905Z,29.53
2016-07-22T08:51:45.818Z,29.12
2016-07-22T08:52:46.585Z,29.04
2016-07-22T08:53:46.162Z,29.17
2016-07-22T08:54:46.109Z,28.75
2016-07-22T08:55:46.007Z,28.07
2016-07-22T08:56:45.799Z,27.82
2016-07-22T08:57:45.995Z,27.8
2016-07-22T08:58:46.274Z,28.01
2016-07-22T08:59:46.582Z,28.14
2016-07-22T09:00:45.901Z,27.96
2016-07-22T09:01:45.837Z,28.01
2016-07-22T09:02:46.776Z,28.02
2016-07-22T09:03:47.466Z,28.04
2016-07-22T09:04:47.413Z,27.85
2016-07-22T09:05:45.747Z,27.75
2016-07-22T09:06:45.731Z,27.9
2016-07-22T09:07:45.728Z,28.48
2016-07-22T09:08:46.495Z,29.04
2016-07-22T09:09:46.140Z,29.5
2016-07-22T09:10:45.771Z,29.57
2016-07-22T09:11:46.407Z,29.75
2016-07-22T09:12:47.161Z,29.71
2016-07-22T09:13:47.071Z,29.88
2016-07-22T09:14:45.819Z,29.49
2016-07-22T09:15:49.484Z,29.54
2016-07-22T09:16:46.322Z,29.9
2016-07-22T09:17:48.274Z,30.18
2016-07-22T09:18:45.766Z,30.25
2016-07-22T09:19:45.794Z,30.05
2016-07-22T09:20:46.261Z,29.95
2016-07-22T09:21:45.979Z,30.12
2016-07-22T09:22:45.953Z,29.76
2016-07-22T09:23:47.062Z,29.6
2016-07-22T09:25:02.705Z,29.6
2016-07-22T09:25:45.783Z,29.76
2016-07-22T09:26:46.073Z,29.98
2016-07-22T09:27:45.734Z,29.82
2016-07-22T09:28:55.763Z,29.57
2016-07-22T09:29:46.095Z,29.76
2016-07-22T09:30:49.415Z,29.79
2016-07-22T09:31:45.996Z,29.78
2016-07-22T09:32:45.829Z,29.63
2016-07-22T09:34:12.952Z,29.54
2016-07-22T09:34:46.008Z,29.45
2016-07-22T09:35:46.906Z,29.73
2016-07-22T09:36:45.741Z,29.66
2016-07-22T09:37:45.865Z,29.75
2016-07-22T09:38:46.478Z,29.42
2016-07-22T09:39:45.890Z,29.16
2016-07-22T09:40:46.071Z,28.91
2016-07-22T09:41:45.962Z,28.67
2016-07-22T09:42:47.579Z,28.26
2016-07-22T09:43:46.436Z,27.98
2016-07-22T09:44:45.882Z,27.86
2016-07-22T09:45:46.155Z,27.59
2016-07-22T09:46:46.184Z,27.37
2016-07-22T09:47:45.819Z,27.14
2016-07-22T09:48:45.917Z,26.73
2016-07-22T09:49:45.846Z,26.59
2016-07-22T09:50:48.572Z,26.55
2016-07-22T09:51:49.650Z,26.44
2016-07-22T09:52:56.310Z,26.22
2016-07-22T09:53:51.609Z,26.16
2016-07-22T09:54:48.540Z,25.96
2016-07-22T09:55:46.881Z,25.83
2016-07-22T09:56:46.043Z,25.72
2016-07-22T09:57:46.664Z,25.78
2016-07-22T09:58:46.794Z,25.55
2016-07-22T09:59:45.986Z,25.51
2016-07-22T10:00:45.748Z,25.53
2016-07-22T10:01:47.234Z,25.36
2016-07-22T10:02:45.792Z,25.33
2016-07-22T10:03:55.951Z,25.18
2016-07-22T10:04:45.780Z,24.99
2016-07-22T10:05:46.027Z,24.88
2016-07-22T10:06:45.885Z,24.61
2016-07-22T10:07:52.990Z,24.14
2016-07-22T10:08:47.770Z,24.11
2016-07-22T10:09:51.477Z,23.98
2016-07-22T10:10:51.502Z,23.88
2016-07-22T10:11:46.325Z,23.83
2016-07-22T10:12:46.488Z,23.77
2016-07-22T10:13:54.606Z,23.76
2016-07-22T10:15:22.668Z,23.77
2016-07-22T10:15:59.561Z,23.61
2016-07-22T10:16:54.551Z,23.51
2016-07-22T10:17:54.590Z,23.48
2016-07-22T10:18:54.599Z,23.43
2016-07-22T10:19:54.530Z,23.55
2016-07-22T10:20:54.547Z,23.68
2016-07-22T10:21:54.599Z,23.65
2016-07-22T10:22:54.898Z,23.76
2016-07-22T10:23:54.684Z,23.78
2016-07-22T10:24:54.877Z,23.95
2016-07-22T10:25:54.697Z,24.11
2016-07-22T10:26:56.425Z,24.24
2016-07-22T10:27:57.564Z,24.63
2016-07-22T10:28:54.381Z,25.35
2016-07-22T10:29:55.173Z,26.19
2016-07-22T10:30:54.492Z,27
2016-07-22T10:43:30.869Z,25.4
2016-07-22T10:44:29.118Z,25.47
2016-07-22T10:45:29.491Z,25.47
2016-07-22T10:46:33.663Z,25.18
2016-07-22T10:47:53.000Z,24.84
2016-07-22T10:48:41.249Z,24.76
2016-07-22T10:49:35.913Z,25.03
2016-07-22T10:50:43.011Z,25.65
2016-07-22T10:51:36.959Z,26.25
2016-07-22T10:52:50.090Z,26.41
2016-07-22T10:53:35.803Z,26.6
2016-07-22T10:54:33.712Z,26.34
2016-07-22T10:55:37.409Z,25.69
2016-07-22T10:56:33.691Z,24.73
2016-07-22T10:57:33.958Z,24.05
2016-07-22T10:58:34.660Z,23.93
2016-07-22T10:59:34.044Z,23.71
2016-07-22T11:00:33.664Z,23.62
2016-07-22T11:01:34.478Z,23.2
2016-07-22T11:02:33.665Z,23.2
2016-07-22T11:03:33.756Z,23.5
2016-07-22T11:04:34.473Z,23.87
2016-07-22T11:05:34.757Z,24.21
2016-07-22T11:06:33.857Z,24.4
2016-07-22T11:07:33.698Z,24.24
2016-07-22T11:08:33.867Z,24.38
2016-07-22T11:09:33.740Z,24.11
2016-07-22T11:10:33.689Z,23.98
2016-07-22T11:11:34.717Z,24.01
2016-07-22T11:12:33.822Z,24.11
2016-07-22T11:13:36.328Z,24.13
2016-07-22T11:14:34.015Z,24.18
2016-07-22T11:15:36.497Z,23.93
2016-07-22T11:16:36.221Z,23.8
2016-07-22T11:17:33.711Z,24.11
2016-07-22T11:18:33.960Z,24.68
2016-07-22T11:19:34.148Z,25.35
2016-07-22T11:20:34.235Z,26.28
2016-07-22T11:21:33.697Z,26.74
2016-07-22T11:22:33.771Z,26.97
2016-07-22T11:23:33.740Z,26.83
2016-07-22T11:24:33.694Z,27.15
2016-07-22T11:25:33.713Z,27.68
2016-07-22T11:26:33.703Z,27.85
2016-07-22T11:27:34.461Z,26.96
2016-07-22T11:28:36.865Z,26.43
2016-07-22T11:29:33.756Z,26.41
2016-07-22T11:30:37.266Z,26.6
2016-07-22T11:31:34.972Z,27.15
2016-07-22T11:32:36.021Z,27.65
2016-07-22T11:33:36.888Z,28.01
2016-07-22T11:34:33.838Z,28.37
2016-07-22T11:35:35.677Z,27.37
2016-07-22T11:36:33.817Z,27.17
2016-07-22T11:37:35.717Z,26.15
2016-07-22T11:38:33.930Z,26.41
2016-07-22T11:39:34.669Z,25.96
2016-07-22T11:40:33.721Z,26.63
2016-07-22T11:41:33.936Z,26.16
2016-07-22T11:42:35.399Z,26.09
2016-07-22T11:43:40.243Z,26.41
2016-07-22T11:44:34.360Z,26.03
2016-07-22T11:45:33.889Z,26.25
2016-07-22T11:46:33.772Z,26.95
2016-07-22T11:47:33.856Z,27.7
2016-07-22T11:48:34.956Z,27.96
2016-07-22T11:49:33.834Z,28.01
2016-07-22T11:50:33.896Z,27.92
2016-07-22T11:51:34.399Z,27.18
2016-07-22T11:52:33.830Z,27.25
2016-07-22T11:53:33.999Z,27.78
2016-07-22T11:54:33.737Z,28.19
2016-07-22T11:55:34.140Z,28.75
2016-07-22T11:56:33.786Z,28.2
2016-07-22T11:57:33.720Z,27.14
2016-07-22T11:58:34.265Z,26.97
2016-07-22T11:59:33.771Z,26.88
2016-07-22T12:00:33.772Z,27.17
2016-07-22T12:01:33.846Z,27.02
2016-07-22T12:02:34.542Z,27.03
2016-07-22T12:03:33.862Z,27.17
2016-07-22T12:04:36.164Z,27.02
2016-07-22T12:05:33.857Z,26.84
2016-07-22T12:06:34.500Z,27.58
2016-07-22T12:07:34.922Z,28.22
2016-07-22T12:08:34.241Z,28.32
2016-07-22T12:09:35.594Z,27.75
2016-07-22T12:10:33.765Z,27.95
2016-07-22T12:11:33.809Z,28.51
2016-07-22T12:12:33.852Z,29.13
2016-07-22T12:13:33.785Z,29.78
2016-07-22T12:14:34.125Z,28.96
2016-07-22T12:15:33.751Z,28.64
2016-07-22T12:16:35.424Z,28.32
2016-07-22T12:17:33.927Z,27.37
2016-07-22T12:18:34.721Z,27.1
2016-07-22T12:19:34.010Z,27.03
2016-07-22T12:20:34.961Z,27.14
2016-07-22T12:21:34.516Z,26.84
2016-07-22T12:22:33.825Z,26.59
2016-07-22T12:23:34.282Z,26.23
2016-07-22T12:24:34.094Z,26.07
2016-07-22T12:25:33.826Z,26.43
2016-07-22T12:26:34.042Z,26.97
2016-07-22T12:27:33.949Z,27.26
2016-07-22T12:28:33.833Z,27.63
2016-07-22T12:29:33.800Z,28.44
2016-07-22T12:30:34.984Z,28.88
2016-07-22T12:31:33.869Z,29.26
2016-07-22T12:32:35.180Z,29.71
2016-07-22T12:33:34.149Z,29.94
2016-07-22T12:34:35.850Z,29.84
2016-07-22T12:35:33.855Z,29.07
2016-07-22T12:36:34.890Z,28.26
2016-07-22T12:37:33.779Z,27.45
2016-07-22T12:38:33.820Z,27.21
2016-07-22T12:39:33.893Z,27.2
2016-07-22T12:40:33.973Z,27.2
2016-07-22T12:41:33.860Z,27.05
2016-07-22T12:42:34.061Z,26.73
2016-07-22T12:43:34.799Z,26.59
2016-07-22T12:44:34.103Z,26.7
2016-07-22T12:45:36.649Z,26.88
2016-07-22T12:46:33.998Z,26.81
2016-07-22T12:47:34.023Z,27
2016-07-22T12:48:33.786Z,27.05
2016-07-22T12:49:33.906Z,26.83
2016-07-22T12:50:33.795Z,27.02
2016-07-22T12:51:33.941Z,27.45
2016-07-22T12:52:33.792Z,27.27
2016-07-22T12:53:33.801Z,27.12
2016-07-22T12:54:34.043Z,26.9
2016-07-22T12:55:33.779Z,26.93
2016-07-22T12:56:33.791Z,26.99
2016-07-22T12:57:34.545Z,26.77
2016-07-22T12:58:33.847Z,26.73
2016-07-22T12:59:33.797Z,26.53
2016-07-22T13:00:34.292Z,26.33
2016-07-22T13:01:33.856Z,26.03
2016-07-22T13:02:33.767Z,26.06
2016-07-22T13:03:33.772Z,26.02
2016-07-22T13:04:33.751Z,25.98
2016-07-22T13:05:33.746Z,26.03
2016-07-22T13:06:33.753Z,25.72
2016-07-22T13:07:33.755Z,25.73
2016-07-22T13:08:34.569Z,25.41